sensor_id;sensor_type;location;lat;lon;timestamp;P1;durP1;ratioP1;P2;durP2;ratioP2
58362;SDS011;54977;51.510;7.522;2022-09-04T00:05:11;4.57;;;3.10;;
58362;SDS011;54977;51.510;7.522;2022-09-04T00:10:18;4.78;;;2.88;;
58362;SDS011;54977;51.510;7.522;2022-09-04T00:15:31;6.93;;;2.60;;
58362;SDS011;54977;51.510;7.522;2022-09-04T00:20:37;8.23;;;3.10;;
58362;SDS011;54977;51.510;7.522;2022-09-04T00:25:43;5.22;;;2.50;;
58362;SDS011;54977;51.510;7.522;2022-09-04T00:30:55;3.72;;;2.50;;
58362;SDS011;54977;51.510;7.522;2022-09-04T00:36:03;5.97;;;2.92;;
58362;SDS011;54977;51.510;7.522;2022-09-04T00:41:08;5.50;;;2.65;;
58362;SDS011;54977;51.510;7.522;2022-09-04T00:46:21;3.03;;;2.30;;
58362;SDS011;54977;51.510;7.522;2022-09-04T00:51:39;4.50;;;2.67;;
58362;SDS011;54977;51.510;7.522;2022-09-04T00:57:06;8.65;;;3.00;;
58362;SDS011;54977;51.510;7.522;2022-09-04T01:02:56;3.72;;;2.60;;
58362;SDS011;54977;51.510;7.522;2022-09-04T01:08:22;5.53;;;3.20;;
58362;SDS011;54977;51.510;7.522;2022-09-04T01:13:33;8.07;;;3.17;;
58362;SDS011;54977;51.510;7.522;2022-09-04T01:18:44;7.90;;;2.72;;
58362;SDS011;54977;51.510;7.522;2022-09-04T01:24:00;9.75;;;3.33;;
58362;SDS011;54977;51.510;7.522;2022-09-04T01:29:25;7.82;;;3.00;;
58362;SDS011;54977;51.510;7.522;2022-09-04T01:34:41;5.65;;;3.10;;
58362;SDS011;54977;51.510;7.522;2022-09-04T01:39:54;6.40;;;3.22;;
58362;SDS011;54977;51.510;7.522;2022-09-04T01:45:09;5.25;;;3.53;;
58362;SDS011;54977;51.510;7.522;2022-09-04T01:50:12;6.68;;;3.03;;
58362;SDS011;54977;51.510;7.522;2022-09-04T01:55:22;6.25;;;2.92;;
58362;SDS011;54977;51.510;7.522;2022-09-04T02:00:32;5.07;;;3.40;;
58362;SDS011;54977;51.510;7.522;2022-09-04T02:05:42;6.63;;;4.13;;
58362;SDS011;54977;51.510;7.522;2022-09-04T02:10:52;6.32;;;3.65;;
58362;SDS011;54977;51.510;7.522;2022-09-04T02:21:11;5.97;;;3.60;;
58362;SDS011;54977;51.510;7.522;2022-09-04T02:26:21;4.32;;;3.10;;
58362;SDS011;54977;51.510;7.522;2022-09-04T02:31:33;6.05;;;3.25;;
58362;SDS011;54977;51.510;7.522;2022-09-04T02:36:42;5.95;;;3.42;;
58362;SDS011;54977;51.510;7.522;2022-09-04T02:41:52;7.60;;;3.30;;
58362;SDS011;54977;51.510;7.522;2022-09-04T02:47:05;5.32;;;3.13;;
58362;SDS011;54977;51.510;7.522;2022-09-04T02:52:22;6.03;;;3.13;;
58362;SDS011;54977;51.510;7.522;2022-09-04T02:57:36;5.28;;;2.97;;
58362;SDS011;54977;51.510;7.522;2022-09-04T03:02:57;4.35;;;3.10;;
58362;SDS011;54977;51.510;7.522;2022-09-04T03:08:04;5.90;;;2.90;;
58362;SDS011;54977;51.510;7.522;2022-09-04T03:13:14;4.07;;;2.78;;
58362;SDS011;54977;51.510;7.522;2022-09-04T03:18:25;5.50;;;2.60;;
58362;SDS011;54977;51.510;7.522;2022-09-04T03:23:31;4.70;;;2.88;;
58362;SDS011;54977;51.510;7.522;2022-09-04T03:28:42;3.92;;;2.85;;
58362;SDS011;54977;51.510;7.522;2022-09-04T03:33:55;3.95;;;2.65;;
58362;SDS011;54977;51.510;7.522;2022-09-04T03:39:06;4.32;;;3.05;;
58362;SDS011;54977;51.510;7.522;2022-09-04T03:44:18;3.97;;;2.70;;
58362;SDS011;54977;51.510;7.522;2022-09-04T03:49:37;6.38;;;2.67;;
58362;SDS011;54977;51.510;7.522;2022-09-04T04:00:18;6.80;;;3.00;;
58362;SDS011;54977;51.510;7.522;2022-09-04T04:05:25;6.32;;;3.00;;
58362;SDS011;54977;51.510;7.522;2022-09-04T04:10:37;3.55;;;2.80;;
58362;SDS011;54977;51.510;7.522;2022-09-04T04:15:55;4.05;;;2.90;;
58362;SDS011;54977;51.510;7.522;2022-09-04T04:21:11;3.42;;;2.95;;
58362;SDS011;54977;51.510;7.522;2022-09-04T04:26:24;3.70;;;3.28;;
58362;SDS011;54977;51.510;7.522;2022-09-04T04:31:46;4.72;;;3.20;;
58362;SDS011;54977;51.510;7.522;2022-09-04T04:37:13;4.65;;;3.22;;
58362;SDS011;54977;51.510;7.522;2022-09-04T04:42:28;4.78;;;3.10;;
58362;SDS011;54977;51.510;7.522;2022-09-04T04:53:13;6.70;;;3.10;;
58362;SDS011;54977;51.510;7.522;2022-09-04T04:58:25;5.32;;;3.50;;
58362;SDS011;54977;51.510;7.522;2022-09-04T05:03:41;4.50;;;3.50;;
58362;SDS011;54977;51.510;7.522;2022-09-04T05:08:55;3.80;;;3.33;;
58362;SDS011;54977;51.510;7.522;2022-09-04T05:14:05;5.37;;;3.40;;
58362;SDS011;54977;51.510;7.522;2022-09-04T05:19:20;5.75;;;3.58;;
58362;SDS011;54977;51.510;7.522;2022-09-04T05:24:30;4.07;;;2.92;;
58362;SDS011;54977;51.510;7.522;2022-09-04T05:29:39;6.57;;;3.28;;
58362;SDS011;54977;51.510;7.522;2022-09-04T05:35:02;5.88;;;3.15;;
58362;SDS011;54977;51.510;7.522;2022-09-04T05:40:14;5.13;;;3.42;;
58362;SDS011;54977;51.510;7.522;2022-09-04T05:45:24;3.92;;;3.40;;
58362;SDS011;54977;51.510;7.522;2022-09-04T05:50:49;5.78;;;2.80;;
58362;SDS011;54977;51.510;7.522;2022-09-04T05:56:18;4.82;;;3.00;;
58362;SDS011;54977;51.510;7.522;2022-09-04T06:01:36;5.68;;;3.55;;
58362;SDS011;54977;51.510;7.522;2022-09-04T06:06:55;9.10;;;3.20;;
58362;SDS011;54977;51.510;7.522;2022-09-04T06:17:40;16.02;;;3.40;;
58362;SDS011;54977;51.510;7.522;2022-09-04T06:22:59;6.75;;;3.22;;
58362;SDS011;54977;51.510;7.522;2022-09-04T06:28:16;4.60;;;3.40;;
58362;SDS011;54977;51.510;7.522;2022-09-04T06:33:49;6.47;;;3.45;;
58362;SDS011;54977;51.510;7.522;2022-09-04T06:39:21;4.38;;;3.45;;
58362;SDS011;54977;51.510;7.522;2022-09-04T06:44:39;3.70;;;3.00;;
58362;SDS011;54977;51.510;7.522;2022-09-04T06:50:03;4.95;;;3.00;;
58362;SDS011;54977;51.510;7.522;2022-09-04T07:00:22;3.45;;;2.70;;
58362;SDS011;54977;51.510;7.522;2022-09-04T07:05:25;3.60;;;2.70;;
58362;SDS011;54977;51.510;7.522;2022-09-04T07:10:32;5.65;;;2.58;;
58362;SDS011;54977;51.510;7.522;2022-09-04T07:15:47;4.50;;;2.53;;
58362;SDS011;54977;51.510;7.522;2022-09-04T07:21:00;3.65;;;2.30;;
58362;SDS011;54977;51.510;7.522;2022-09-04T07:26:14;5.10;;;2.70;;
58362;SDS011;54977;51.510;7.522;2022-09-04T07:31:30;5.90;;;2.90;;
58362;SDS011;54977;51.510;7.522;2022-09-04T07:36:39;3.60;;;2.47;;
58362;SDS011;54977;51.510;7.522;2022-09-04T07:41:47;3.22;;;2.10;;
58362;SDS011;54977;51.510;7.522;2022-09-04T07:46:57;3.30;;;2.50;;
58362;SDS011;54977;51.510;7.522;2022-09-04T07:52:12;3.83;;;2.33;;
58362;SDS011;54977;51.510;7.522;2022-09-04T07:57:25;3.33;;;2.45;;
58362;SDS011;54977;51.510;7.522;2022-09-04T08:02:49;4.43;;;2.50;;
58362;SDS011;54977;51.510;7.522;2022-09-04T08:08:15;5.95;;;2.92;;
58362;SDS011;54977;51.510;7.522;2022-09-04T08:13:36;3.60;;;2.35;;
58362;SDS011;54977;51.510;7.522;2022-09-04T08:19:08;4.63;;;2.60;;
58362;SDS011;54977;51.510;7.522;2022-09-04T08:24:32;4.95;;;2.60;;
58362;SDS011;54977;51.510;7.522;2022-09-04T08:29:58;4.50;;;2.40;;
58362;SDS011;54977;51.510;7.522;2022-09-04T08:35:08;4.43;;;2.63;;
58362;SDS011;54977;51.510;7.522;2022-09-04T08:40:17;4.50;;;2.42;;
58362;SDS011;54977;51.510;7.522;2022-09-04T08:45:35;3.60;;;2.65;;
58362;SDS011;54977;51.510;7.522;2022-09-04T08:51:22;3.80;;;2.80;;
58362;SDS011;54977;51.510;7.522;2022-09-04T08:56:44;3.75;;;2.40;;
58362;SDS011;54977;51.510;7.522;2022-09-04T09:02:06;4.32;;;2.42;;
58362;SDS011;54977;51.510;7.522;2022-09-04T09:07:43;3.50;;;2.53;;
58362;SDS011;54977;51.510;7.522;2022-09-04T09:30:08;6.63;;;3.05;;
58362;SDS011;54977;51.510;7.522;2022-09-04T09:35:24;4.00;;;2.60;;
58362;SDS011;54977;51.510;7.522;2022-09-04T09:41:00;4.18;;;2.78;;
58362;SDS011;54977;51.510;7.522;2022-09-04T09:52:04;5.20;;;2.72;;
58362;SDS011;54977;51.510;7.522;2022-09-04T09:57:18;4.88;;;2.50;;
58362;SDS011;54977;51.510;7.522;2022-09-04T10:02:33;4.95;;;3.10;;
58362;SDS011;54977;51.510;7.522;2022-09-04T10:08:02;3.92;;;2.90;;
58362;SDS011;54977;51.510;7.522;2022-09-04T10:13:18;4.55;;;2.85;;
58362;SDS011;54977;51.510;7.522;2022-09-04T10:18:50;3.97;;;3.20;;
58362;SDS011;54977;51.510;7.522;2022-09-04T10:29:26;3.90;;;3.03;;
58362;SDS011;54977;51.510;7.522;2022-09-04T10:34:41;7.28;;;2.97;;
58362;SDS011;54977;51.510;7.522;2022-09-04T10:39:47;5.15;;;2.92;;
58362;SDS011;54977;51.510;7.522;2022-09-04T10:45:17;3.63;;;2.72;;
58362;SDS011;54977;51.510;7.522;2022-09-04T10:50:26;4.03;;;2.80;;
58362;SDS011;54977;51.510;7.522;2022-09-04T10:55:36;3.45;;;2.70;;
58362;SDS011;54977;51.510;7.522;2022-09-04T11:00:50;5.07;;;2.88;;
58362;SDS011;54977;51.510;7.522;2022-09-04T11:16:46;5.07;;;3.17;;
58362;SDS011;54977;51.510;7.522;2022-09-04T11:22:01;4.18;;;2.72;;
58362;SDS011;54977;51.510;7.522;2022-09-04T11:27:53;5.38;;;2.72;;
58362;SDS011;54977;51.510;7.522;2022-09-04T11:38:50;3.47;;;2.60;;
58362;SDS011;54977;51.510;7.522;2022-09-04T11:44:18;3.60;;;2.50;;
58362;SDS011;54977;51.510;7.522;2022-09-04T11:49:31;3.65;;;2.78;;
58362;SDS011;54977;51.510;7.522;2022-09-04T11:54:48;4.90;;;2.80;;
58362;SDS011;54977;51.510;7.522;2022-09-04T12:00:01;4.80;;;2.90;;
58362;SDS011;54977;51.510;7.522;2022-09-04T12:05:12;3.70;;;2.35;;
58362;SDS011;54977;51.510;7.522;2022-09-04T12:10:28;4.18;;;2.75;;
58362;SDS011;54977;51.510;7.522;2022-09-04T12:15:42;3.25;;;2.95;;
58362;SDS011;54977;51.510;7.522;2022-09-04T12:20:56;2.83;;;2.40;;
58362;SDS011;54977;51.510;7.522;2022-09-04T12:26:09;4.03;;;2.38;;
58362;SDS011;54977;51.510;7.522;2022-09-04T12:42:00;4.45;;;2.63;;
58362;SDS011;54977;51.510;7.522;2022-09-04T12:47:09;4.85;;;2.28;;
58362;SDS011;54977;51.510;7.522;2022-09-04T12:52:13;3.40;;;1.70;;
58362;SDS011;54977;51.510;7.522;2022-09-04T12:57:23;4.20;;;2.20;;
58362;SDS011;54977;51.510;7.522;2022-09-04T13:02:35;4.85;;;2.22;;
58362;SDS011;54977;51.510;7.522;2022-09-04T13:07:50;3.65;;;2.60;;
58362;SDS011;54977;51.510;7.522;2022-09-04T13:12:59;3.30;;;2.35;;
58362;SDS011;54977;51.510;7.522;2022-09-04T13:18:17;4.20;;;2.35;;
58362;SDS011;54977;51.510;7.522;2022-09-04T13:23:28;4.57;;;2.47;;
58362;SDS011;54977;51.510;7.522;2022-09-04T13:28:37;2.80;;;2.13;;
58362;SDS011;54977;51.510;7.522;2022-09-04T13:33:47;5.00;;;2.63;;
58362;SDS011;54977;51.510;7.522;2022-09-04T13:39:02;4.22;;;2.28;;
58362;SDS011;54977;51.510;7.522;2022-09-04T13:49:35;2.40;;;1.98;;
58362;SDS011;54977;51.510;7.522;2022-09-04T13:54:40;5.03;;;2.10;;
58362;SDS011;54977;51.510;7.522;2022-09-04T13:59:44;5.78;;;2.15;;
58362;SDS011;54977;51.510;7.522;2022-09-04T14:04:51;2.80;;;1.50;;
58362;SDS011;54977;51.510;7.522;2022-09-04T14:09:55;3.35;;;2.67;;
58362;SDS011;54977;51.510;7.522;2022-09-04T14:15:14;3.70;;;2.15;;
58362;SDS011;54977;51.510;7.522;2022-09-04T14:20:21;3.10;;;1.85;;
58362;SDS011;54977;51.510;7.522;2022-09-04T14:25:28;2.92;;;1.90;;
58362;SDS011;54977;51.510;7.522;2022-09-04T14:30:40;3.25;;;1.70;;
58362;SDS011;54977;51.510;7.522;2022-09-04T14:35:56;4.07;;;1.80;;
58362;SDS011;54977;51.510;7.522;2022-09-04T14:46:08;4.53;;;1.50;;
58362;SDS011;54977;51.510;7.522;2022-09-04T14:51:15;2.40;;;1.15;;
58362;SDS011;54977;51.510;7.522;2022-09-04T14:56:31;3.00;;;1.53;;
58362;SDS011;54977;51.510;7.522;2022-09-04T15:01:38;4.63;;;1.50;;
58362;SDS011;54977;51.510;7.522;2022-09-04T15:07:01;2.58;;;1.40;;
58362;SDS011;54977;51.510;7.522;2022-09-04T15:12:24;1.90;;;1.33;;
58362;SDS011;54977;51.510;7.522;2022-09-04T15:17:32;2.97;;;1.60;;
58362;SDS011;54977;51.510;7.522;2022-09-04T15:22:40;2.38;;;1.50;;
58362;SDS011;54977;51.510;7.522;2022-09-04T15:27:48;2.40;;;1.48;;
58362;SDS011;54977;51.510;7.522;2022-09-04T15:33:01;2.65;;;1.58;;
58362;SDS011;54977;51.510;7.522;2022-09-04T15:38:08;2.78;;;1.80;;
58362;SDS011;54977;51.510;7.522;2022-09-04T15:43:20;4.03;;;1.83;;
58362;SDS011;54977;51.510;7.522;2022-09-04T15:48:32;3.45;;;1.77;;
58362;SDS011;54977;51.510;7.522;2022-09-04T15:53:46;2.95;;;1.90;;
58362;SDS011;54977;51.510;7.522;2022-09-04T15:58:54;3.88;;;1.90;;
58362;SDS011;54977;51.510;7.522;2022-09-04T16:04:02;3.40;;;1.80;;
58362;SDS011;54977;51.510;7.522;2022-09-04T16:09:16;3.60;;;2.10;;
58362;SDS011;54977;51.510;7.522;2022-09-04T16:14:25;2.78;;;1.50;;
58362;SDS011;54977;51.510;7.522;2022-09-04T16:19:31;4.43;;;1.80;;
58362;SDS011;54977;51.510;7.522;2022-09-04T16:24:40;3.72;;;1.70;;
58362;SDS011;54977;51.510;7.522;2022-09-04T16:29:47;3.70;;;1.58;;
58362;SDS011;54977;51.510;7.522;2022-09-04T16:34:51;2.72;;;1.80;;
58362;SDS011;54977;51.510;7.522;2022-09-04T16:40:10;3.60;;;2.20;;
58362;SDS011;54977;51.510;7.522;2022-09-04T16:45:22;2.90;;;2.20;;
58362;SDS011;54977;51.510;7.522;2022-09-04T16:50:29;3.92;;;2.17;;
58362;SDS011;54977;51.510;7.522;2022-09-04T16:55:38;2.85;;;2.08;;
58362;SDS011;54977;51.510;7.522;2022-09-04T17:00:52;5.55;;;2.10;;
58362;SDS011;54977;51.510;7.522;2022-09-04T17:06:00;3.85;;;2.72;;
58362;SDS011;54977;51.510;7.522;2022-09-04T17:11:10;5.80;;;2.30;;
58362;SDS011;54977;51.510;7.522;2022-09-04T17:16:18;5.87;;;2.20;;
58362;SDS011;54977;51.510;7.522;2022-09-04T17:21:23;8.38;;;3.38;;
58362;SDS011;54977;51.510;7.522;2022-09-04T17:26:47;7.15;;;2.72;;
58362;SDS011;54977;51.510;7.522;2022-09-04T17:31:55;4.25;;;2.13;;
58362;SDS011;54977;51.510;7.522;2022-09-04T17:37:01;6.65;;;2.65;;
58362;SDS011;54977;51.510;7.522;2022-09-04T17:42:13;5.63;;;2.20;;
58362;SDS011;54977;51.510;7.522;2022-09-04T17:52:28;3.67;;;2.35;;
58362;SDS011;54977;51.510;7.522;2022-09-04T17:57:43;9.30;;;2.83;;
58362;SDS011;54977;51.510;7.522;2022-09-04T18:02:53;7.75;;;2.95;;
58362;SDS011;54977;51.510;7.522;2022-09-04T18:08:00;6.18;;;2.30;;
58362;SDS011;54977;51.510;7.522;2022-09-04T18:13:12;7.32;;;3.40;;
58362;SDS011;54977;51.510;7.522;2022-09-04T18:18:20;8.85;;;3.65;;
58362;SDS011;54977;51.510;7.522;2022-09-04T18:23:29;4.97;;;2.95;;
58362;SDS011;54977;51.510;7.522;2022-09-04T18:28:42;5.28;;;2.78;;
58362;SDS011;54977;51.510;7.522;2022-09-04T18:33:57;7.43;;;3.30;;
58362;SDS011;54977;51.510;7.522;2022-09-04T18:39:04;7.07;;;3.20;;
58362;SDS011;54977;51.510;7.522;2022-09-04T18:44:14;8.00;;;2.90;;
58362;SDS011;54977;51.510;7.522;2022-09-04T18:49:21;7.30;;;3.20;;
58362;SDS011;54977;51.510;7.522;2022-09-04T18:54:25;5.65;;;3.22;;
58362;SDS011;54977;51.510;7.522;2022-09-04T18:59:36;5.95;;;2.95;;
58362;SDS011;54977;51.510;7.522;2022-09-04T19:04:45;4.55;;;3.22;;
58362;SDS011;54977;51.510;7.522;2022-09-04T19:09:56;7.43;;;3.40;;
58362;SDS011;54977;51.510;7.522;2022-09-04T19:15:10;6.55;;;3.53;;
58362;SDS011;54977;51.510;7.522;2022-09-04T19:20:26;5.38;;;3.55;;
58362;SDS011;54977;51.510;7.522;2022-09-04T19:25:32;7.03;;;3.40;;
58362;SDS011;54977;51.510;7.522;2022-09-04T19:30:44;8.23;;;4.30;;
58362;SDS011;54977;51.510;7.522;2022-09-04T19:35:51;7.85;;;4.10;;
58362;SDS011;54977;51.510;7.522;2022-09-04T19:40:57;8.52;;;4.50;;
58362;SDS011;54977;51.510;7.522;2022-09-04T19:46:08;8.73;;;3.90;;
58362;SDS011;54977;51.510;7.522;2022-09-04T19:51:27;6.55;;;3.80;;
58362;SDS011;54977;51.510;7.522;2022-09-04T19:56:34;5.68;;;3.50;;
58362;SDS011;54977;51.510;7.522;2022-09-04T20:01:47;5.00;;;3.78;;
58362;SDS011;54977;51.510;7.522;2022-09-04T20:06:53;5.80;;;4.00;;
58362;SDS011;54977;51.510;7.522;2022-09-04T20:12:02;5.90;;;3.67;;
58362;SDS011;54977;51.510;7.522;2022-09-04T20:17:21;7.00;;;3.95;;
58362;SDS011;54977;51.510;7.522;2022-09-04T20:22:39;8.32;;;3.83;;
58362;SDS011;54977;51.510;7.522;2022-09-04T20:27:48;7.13;;;4.07;;
58362;SDS011;54977;51.510;7.522;2022-09-04T20:32:59;8.15;;;3.85;;
58362;SDS011;54977;51.510;7.522;2022-09-04T20:38:12;4.75;;;3.75;;
58362;SDS011;54977;51.510;7.522;2022-09-04T20:43:22;8.48;;;4.00;;
58362;SDS011;54977;51.510;7.522;2022-09-04T20:48:44;6.32;;;3.63;;
58362;SDS011;54977;51.510;7.522;2022-09-04T20:59:06;6.63;;;4.00;;
58362;SDS011;54977;51.510;7.522;2022-09-04T21:04:19;5.25;;;3.83;;
58362;SDS011;54977;51.510;7.522;2022-09-04T21:09:36;6.22;;;4.25;;
58362;SDS011;54977;51.510;7.522;2022-09-04T21:14:45;5.63;;;3.92;;
58362;SDS011;54977;51.510;7.522;2022-09-04T21:20:05;5.95;;;3.92;;
58362;SDS011;54977;51.510;7.522;2022-09-04T21:30:39;8.02;;;4.28;;
58362;SDS011;54977;51.510;7.522;2022-09-04T21:35:52;5.90;;;4.15;;
58362;SDS011;54977;51.510;7.522;2022-09-04T21:41:09;6.93;;;4.40;;
58362;SDS011;54977;51.510;7.522;2022-09-04T21:46:28;6.32;;;4.18;;
58362;SDS011;54977;51.510;7.522;2022-09-04T21:51:47;5.93;;;3.90;;
58362;SDS011;54977;51.510;7.522;2022-09-04T21:57:21;6.70;;;4.38;;
58362;SDS011;54977;51.510;7.522;2022-09-04T22:03:04;6.20;;;4.43;;
58362;SDS011;54977;51.510;7.522;2022-09-04T22:08:32;6.97;;;4.43;;
58362;SDS011;54977;51.510;7.522;2022-09-04T22:13:46;8.02;;;5.35;;
58362;SDS011;54977;51.510;7.522;2022-09-04T22:24:36;11.63;;;5.10;;
58362;SDS011;54977;51.510;7.522;2022-09-04T22:30:00;6.00;;;4.47;;
58362;SDS011;54977;51.510;7.522;2022-09-04T22:35:16;6.10;;;5.13;;
58362;SDS011;54977;51.510;7.522;2022-09-04T22:40:44;7.45;;;4.88;;
58362;SDS011;54977;51.510;7.522;2022-09-04T22:46:04;6.45;;;5.00;;
58362;SDS011;54977;51.510;7.522;2022-09-04T22:51:29;5.78;;;4.75;;
58362;SDS011;54977;51.510;7.522;2022-09-04T22:56:50;12.02;;;7.63;;
58362;SDS011;54977;51.510;7.522;2022-09-04T23:07:36;7.22;;;5.47;;
58362;SDS011;54977;51.510;7.522;2022-09-04T23:18:26;5.55;;;4.32;;
58362;SDS011;54977;51.510;7.522;2022-09-04T23:34:58;7.22;;;5.20;;
58362;SDS011;54977;51.510;7.522;2022-09-04T23:40:18;5.63;;;4.95;;
58362;SDS011;54977;51.510;7.522;2022-09-04T23:45:39;5.95;;;4.90;;
58362;SDS011;54977;51.510;7.522;2022-09-04T23:50:58;9.27;;;5.25;;
58362;SDS011;54977;51.510;7.522;2022-09-04T23:56:09;7.63;;;5.30;;
